Meath Environmental Platform

Observations for Trim Market St

Time AQI Temp °C Hum % Pres Pa CO μg/m³ H₂S μg/m³ NO μg/m³ NO₂ μg/m³ O₃ μg/m³ SO₂ μg/m³ PM1 μg/m³ PM2.5 μg/m³ PM10 μg/m³
Wednesday 26 August 2026
02:38 2 16.6 85 2,147,483,647 0.3 0 1.32 15.18 36.11 0 4.99 6.06 10.22
02:33 2 16.6 85 2,147,483,647 0.3 0 1.7 14.87 34.52 0 4.99 6.52 10.22
02:32 2 16.6 85 2,147,483,647 0.29 0 1.57 15.19 39.66 0 4.28 5.59 9.14
02:29 2 16.6 85 2,147,483,647 0.29 0 1.82 18.64 37.1 0 5.7 6.06 9.68
02:27 2 16.6 85 2,147,483,647 0.29 0 1.83 15.36 32.99 0 5.7 6.06 11.29
02:20 2 16.6 85 2,147,483,647 0.29 0 1.5 17.68 32.2 0 5.7 6.99 12.91
02:19 2 16.6 85 2,147,483,647 0.28 0 1.55 17.03 38.29 0 6.41 7.46 12.91
02:18 2 16.6 85 2,147,483,647 0.28 0 1.52 16.41 32.28 0 6.41 7.46 11.83
02:17 2 16.6 85 2,147,483,647 0.29 0 1.31 16.1 31.43 0 4.99 6.53 10.76
02:16 2 16.6 85 2,147,483,647 0.29 0 1.44 14.74 35.74 0 3.56 4.67 8.07
02:15 2 16.6 85 2,147,483,647 0.3 0 1.25 15.81 31.7 0 7.13 8.39 13.98
02:14 2 16.6 85 2,147,483,647 0.29 0 1.39 15.55 34.3 0 4.28 5.14 10.22
02:13 2 16.6 85 2,147,483,647 0.3 0 1.3 14.37 35.68 0 5.7 6.06 9.68
02:12 2 16.6 85 2,147,483,647 0.29 0 1.59 14.37 34.24 0 5.7 6.06 10.22
02:11 2 16.6 85 2,147,483,647 0.28 0 1.58 14.27 37.17 0 4.99 6.53 12.91
02:10 2 16.6 85 2,147,483,647 0.29 0 1.75 16.74 31.64 0 5.7 6.53 11.83
02:09 2 16.6 85 2,147,483,647 0.3 0 1.68 18.03 34.99 0 5.7 6.53 12.37
02:08 2 16.6 85 2,147,483,647 0.3 0 1.88 14.75 33.91 0 5.7 6.53 11.83
02:07 2 16.6 85 2,147,483,647 0.3 0 1.67 14.27 42.64 0 5.7 6.53 11.3
02:05 2 16.6 85 2,147,483,647 0.29 0 1.76 15.05 38.72 0 5.7 6.99 11.83